createdAt,value
2023-06-07T00:03:49.741Z,3.10
2023-06-07T00:08:57.629Z,3.40
2023-06-07T00:14:05.551Z,3.50
2023-06-07T00:19:14.310Z,2.70
2023-06-07T00:24:22.519Z,3.30
2023-06-07T00:29:30.194Z,3.40
2023-06-07T00:34:37.779Z,3.30
2023-06-07T00:39:45.444Z,3.30
2023-06-07T00:44:53.097Z,3.30
2023-06-07T00:50:01.467Z,3.50
2023-06-07T00:55:11.165Z,3.60
2023-06-07T01:00:19.435Z,3.40
2023-06-07T01:05:27.197Z,3.90
2023-06-07T01:10:34.918Z,3.20
2023-06-07T01:15:43.309Z,3.50
2023-06-07T01:20:56.377Z,3.40
2023-06-07T01:26:05.478Z,3.50
2023-06-07T01:31:14.404Z,3.50
2023-06-07T01:36:22.743Z,3.10
2023-06-07T01:41:31.035Z,3.50
2023-06-07T01:46:40.050Z,3.70
2023-06-07T01:51:48.042Z,3.40
2023-06-07T01:57:09.361Z,4.00
2023-06-07T02:02:25.996Z,3.10
2023-06-07T02:07:42.165Z,3.40
2023-06-07T02:12:51.914Z,3.50
2023-06-07T02:18:02.664Z,3.70
2023-06-07T02:23:10.907Z,3.00
2023-06-07T02:28:19.028Z,3.50
2023-06-07T02:33:26.835Z,3.40
2023-06-07T02:38:34.450Z,3.40
2023-06-07T02:43:42.079Z,4.00
2023-06-07T02:48:49.969Z,3.40
2023-06-07T02:53:57.554Z,3.70
2023-06-07T02:59:05.162Z,5.10
2023-06-07T03:04:12.832Z,4.90
2023-06-07T03:09:21.128Z,6.90
2023-06-07T03:14:28.842Z,6.20
2023-06-07T03:19:36.450Z,4.80
2023-06-07T03:24:44.842Z,4.80
2023-06-07T03:29:52.570Z,5.20
2023-06-07T03:35:00.268Z,4.50
2023-06-07T03:40:10.558Z,4.60
2023-06-07T03:45:18.260Z,4.20
2023-06-07T03:50:26.020Z,3.90
2023-06-07T03:55:34.607Z,3.70
2023-06-07T04:00:42.680Z,3.80
2023-06-07T04:05:51.023Z,3.70
2023-06-07T04:10:58.640Z,3.30
2023-06-07T04:16:07.062Z,3.70
2023-06-07T04:21:15.731Z,3.60
2023-06-07T04:26:25.105Z,3.30
2023-06-07T04:31:35.605Z,4.10
2023-06-07T04:36:43.481Z,3.60
2023-06-07T04:41:54.425Z,3.00
2023-06-07T04:47:08.103Z,3.60
2023-06-07T04:52:21.000Z,3.40
2023-06-07T04:57:28.786Z,2.90
2023-06-07T05:02:42.655Z,4.30
2023-06-07T05:07:51.014Z,3.70
2023-06-07T05:12:58.844Z,4.20
2023-06-07T05:18:08.649Z,4.10
2023-06-07T05:23:18.184Z,3.80
2023-06-07T05:28:26.044Z,4.30
2023-06-07T05:33:34.079Z,3.50
2023-06-07T05:38:42.044Z,2.90
2023-06-07T05:43:49.645Z,5.50
2023-06-07T05:48:57.253Z,3.80
2023-06-07T05:54:06.864Z,3.10
2023-06-07T05:59:14.495Z,3.20
2023-06-07T06:04:22.095Z,3.90
2023-06-07T06:09:29.880Z,3.80
2023-06-07T06:14:37.498Z,4.30
2023-06-07T06:19:45.146Z,3.70
2023-06-07T06:24:52.852Z,3.60
2023-06-07T06:30:00.827Z,4.50
2023-06-07T06:35:10.046Z,3.50
2023-06-07T06:40:19.844Z,4.20
2023-06-07T06:45:27.549Z,3.60
2023-06-07T06:50:35.793Z,2.60
2023-06-07T06:55:43.639Z,3.30
2023-06-07T07:00:51.436Z,3.50
2023-06-07T07:05:59.248Z,3.20
2023-06-07T07:11:07.033Z,3.30
2023-06-07T07:16:14.728Z,5.80
2023-06-07T07:21:22.601Z,3.20
2023-06-07T07:26:30.215Z,3.80
2023-06-07T07:31:38.309Z,3.20
2023-06-07T07:36:46.153Z,3.00
2023-06-07T07:41:53.772Z,3.70
2023-06-07T07:47:01.412Z,2.70
2023-06-07T07:52:09.878Z,2.80
2023-06-07T07:57:17.524Z,3.20
2023-06-07T08:02:25.259Z,2.80
2023-06-07T08:07:33.494Z,2.70
2023-06-07T08:12:41.186Z,2.90
2023-06-07T08:17:51.357Z,1.90
2023-06-07T08:22:59.318Z,2.70
2023-06-07T08:28:07.419Z,2.50
2023-06-07T08:33:15.698Z,2.30
2023-06-07T08:38:23.319Z,3.00
2023-06-07T08:43:31.035Z,2.90
2023-06-07T08:48:40.789Z,2.80
2023-06-07T08:53:56.628Z,2.70
2023-06-07T08:59:06.083Z,3.20
2023-06-07T09:04:14.440Z,2.50
2023-06-07T09:09:22.304Z,2.70
2023-06-07T09:14:31.464Z,2.30
2023-06-07T09:19:40.736Z,2.10
2023-06-07T09:24:48.537Z,2.40
2023-06-07T09:30:07.137Z,2.00
2023-06-07T09:35:17.255Z,1.70
2023-06-07T09:40:25.609Z,1.80
2023-06-07T09:45:33.829Z,1.90
2023-06-07T09:50:56.156Z,2.40
2023-06-07T09:56:19.809Z,2.10
2023-06-07T10:01:39.194Z,2.20
2023-06-07T10:06:50.901Z,2.00
2023-06-07T10:11:59.742Z,2.50
2023-06-07T10:17:11.687Z,2.60
2023-06-07T10:22:23.646Z,2.20
2023-06-07T10:27:36.498Z,2.10
2023-06-07T10:32:45.510Z,2.10
2023-06-07T10:37:55.052Z,2.30
2023-06-07T10:43:03.989Z,2.30
2023-06-07T10:48:36.111Z,2.40
2023-06-07T10:53:55.604Z,2.20
2023-06-07T10:59:23.485Z,2.70
2023-06-07T11:04:58.352Z,2.30
2023-06-07T11:10:36.497Z,2.40
2023-06-07T11:15:44.328Z,2.20
2023-06-07T11:20:53.655Z,1.90
2023-06-07T11:26:09.639Z,2.10
2023-06-07T11:31:17.952Z,2.40
2023-06-07T11:36:25.732Z,2.50
2023-06-07T11:41:33.607Z,1.50
2023-06-07T11:46:41.390Z,2.10
2023-06-07T11:51:52.245Z,4.80
2023-06-07T11:57:00.180Z,2.40
2023-06-07T12:02:10.100Z,2.20
2023-06-07T12:07:32.998Z,2.50
2023-06-07T12:12:41.668Z,2.20
2023-06-07T12:17:49.326Z,2.20
2023-06-07T12:23:05.736Z,2.60
2023-06-07T12:28:14.102Z,1.80
2023-06-07T12:33:23.429Z,1.80
2023-06-07T12:38:33.235Z,2.00
2023-06-07T12:43:46.730Z,1.90
2023-06-07T12:48:54.826Z,2.30
2023-06-07T12:54:02.520Z,2.20
2023-06-07T12:59:10.213Z,2.00
2023-06-07T13:04:18.083Z,1.90
2023-06-07T13:09:25.805Z,2.10
2023-06-07T13:14:33.548Z,2.10
2023-06-07T13:19:41.801Z,1.80
2023-06-07T13:24:49.495Z,2.00
2023-06-07T13:29:57.875Z,1.90
2023-06-07T13:35:05.866Z,2.00
2023-06-07T13:40:14.524Z,2.10
2023-06-07T13:45:22.741Z,2.10
2023-06-07T13:50:31.854Z,2.10
2023-06-07T13:55:39.495Z,1.90
2023-06-07T14:00:47.113Z,2.20
2023-06-07T14:05:54.821Z,1.90
2023-06-07T14:11:04.052Z,2.10
2023-06-07T14:16:13.271Z,2.30
2023-06-07T14:21:21.220Z,2.30
2023-06-07T14:26:28.915Z,2.30
2023-06-07T14:31:36.615Z,2.40
2023-06-07T14:36:45.559Z,2.50
2023-06-07T14:41:53.257Z,1.90
2023-06-07T14:47:01.537Z,2.00
2023-06-07T14:52:09.793Z,2.00
2023-06-07T14:57:17.861Z,3.20
2023-06-07T15:02:25.627Z,2.50
2023-06-07T15:07:33.311Z,1.70
2023-06-07T15:12:41.300Z,2.70
2023-06-07T15:17:51.745Z,2.60
2023-06-07T15:23:00.207Z,2.20
2023-06-07T15:28:08.875Z,2.30
2023-06-07T15:33:16.573Z,2.60
2023-06-07T15:38:24.390Z,2.20
2023-06-07T15:43:32.070Z,2.60
2023-06-07T15:48:39.836Z,2.80
2023-06-07T15:53:47.884Z,2.40
2023-06-07T15:58:55.523Z,2.30
2023-06-07T16:04:04.736Z,2.40
2023-06-07T16:09:12.551Z,2.30
2023-06-07T16:14:20.602Z,2.30
2023-06-07T16:19:28.255Z,2.50
2023-06-07T16:24:36.169Z,1.90
2023-06-07T16:29:43.813Z,2.50
2023-06-07T16:34:51.513Z,2.60
2023-06-07T16:39:59.222Z,2.50
2023-06-07T16:45:09.684Z,2.30
2023-06-07T16:50:17.690Z,2.20
2023-06-07T16:55:25.544Z,2.80
2023-06-07T17:00:33.231Z,2.70
2023-06-07T17:05:40.990Z,2.60
2023-06-07T17:10:49.409Z,2.70
2023-06-07T17:15:58.108Z,2.90
2023-06-07T17:21:06.692Z,2.40
2023-06-07T17:26:14.967Z,2.70
2023-06-07T17:31:22.664Z,2.90
2023-06-07T17:36:30.310Z,2.80
2023-06-07T17:41:38.015Z,2.90
2023-06-07T17:46:47.060Z,3.30
2023-06-07T17:51:58.397Z,3.10
2023-06-07T17:57:09.326Z,3.40
2023-06-07T18:02:17.105Z,3.70
2023-06-07T18:07:24.861Z,4.00
2023-06-07T18:12:32.512Z,4.90
2023-06-07T18:17:40.200Z,4.70
2023-06-07T18:22:48.023Z,6.10
2023-06-07T18:27:55.626Z,4.70
2023-06-07T18:33:03.765Z,3.90
2023-06-07T18:38:11.553Z,4.20
2023-06-07T18:43:19.291Z,3.90
2023-06-07T18:48:28.084Z,4.10
2023-06-07T18:53:36.532Z,4.80
2023-06-07T18:58:46.568Z,4.70
2023-06-07T19:03:54.605Z,5.20
2023-06-07T19:09:02.493Z,6.60
2023-06-07T19:14:10.897Z,6.50
2023-06-07T19:19:18.603Z,5.80
2023-06-07T19:24:26.356Z,5.60
2023-06-07T19:29:34.147Z,5.50
2023-06-07T19:34:42.583Z,4.80
2023-06-07T19:39:50.621Z,4.90
2023-06-07T19:44:58.329Z,4.90
2023-06-07T19:50:07.836Z,5.50
2023-06-07T19:55:16.542Z,5.60
2023-06-07T20:00:24.362Z,4.90
2023-06-07T20:05:32.069Z,4.60
2023-06-07T20:10:39.717Z,4.80
2023-06-07T20:15:47.461Z,5.60
2023-06-07T20:20:55.135Z,5.70
2023-06-07T20:26:02.765Z,5.20
2023-06-07T20:31:10.455Z,5.10
2023-06-07T20:36:18.125Z,5.90
2023-06-07T20:41:26.846Z,5.70
2023-06-07T20:46:34.931Z,5.60
2023-06-07T20:51:42.813Z,5.70
2023-06-07T20:56:51.097Z,5.00
2023-06-07T21:01:58.867Z,5.70
2023-06-07T21:07:07.219Z,5.20
2023-06-07T21:12:14.936Z,5.30
2023-06-07T21:17:22.810Z,5.70
2023-06-07T21:22:30.579Z,6.20
2023-06-07T21:27:38.350Z,5.90
2023-06-07T21:32:46.058Z,6.40
2023-06-07T21:37:53.771Z,6.10
2023-06-07T21:43:01.440Z,6.30
2023-06-07T21:48:09.264Z,6.70
2023-06-07T21:53:16.933Z,6.30
2023-06-07T21:58:24.962Z,6.00
2023-06-07T22:03:33.622Z,6.40
2023-06-07T22:08:41.272Z,7.10
2023-06-07T22:13:48.914Z,6.90
2023-06-07T22:18:56.561Z,7.40
2023-06-07T22:24:04.874Z,6.90
2023-06-07T22:29:14.017Z,7.30
2023-06-07T22:34:22.576Z,8.10
2023-06-07T22:39:30.188Z,8.10
2023-06-07T22:44:39.224Z,7.40
2023-06-07T22:49:46.833Z,7.30
2023-06-07T22:54:54.458Z,7.40
2023-06-07T23:00:04.147Z,8.20
2023-06-07T23:05:19.133Z,7.80
2023-06-07T23:10:35.612Z,7.00
2023-06-07T23:15:46.384Z,6.70
2023-06-07T23:20:54.440Z,6.70
2023-06-07T23:26:02.144Z,5.60
2023-06-07T23:31:09.773Z,6.60
2023-06-07T23:36:17.710Z,5.70
2023-06-07T23:41:25.384Z,5.80
2023-06-07T23:46:33.082Z,6.50
2023-06-07T23:51:40.752Z,5.50
2023-06-07T23:56:48.639Z,6.40
